Time;durP1;ratioP1;P1;durP2;ratioP2;P2;SDS_P1;SDS_P2;PMS_P1;PMS_P2;Temp;Humidity;BMP_temperature;BMP_pressure;BME280_temperature;BME280_humidity;BME280_pressure;Samples;Min_cycle;Max_cycle;Signal;HPM_P1;HPM_P2
2023/05/21 00:00:40;;;;;;;10.02;5.13;;;;;;;;;;10217950;28;20112;-76
2023/05/21 00:05:36;;;;;;;9.65;5.93;;;;;;;;;;10214538;28;20080;-76
2023/05/21 00:10:35;;;;;;;8.45;5.63;;;;;;;;;;10198171;28;20184;-76
2023/05/21 00:15:31;;;;;;;8.73;6.03;;;;;;;;;;10239037;28;20399;-77
2023/05/21 00:20:28;;;;;;;8.57;6.10;;;;;;;;;;10277478;28;20107;-77
2023/05/21 00:25:24;;;;;;;8.57;6.65;;;;;;;;;;10235450;28;20127;-77
2023/05/21 00:30:21;;;;;;;8.25;5.78;;;;;;;;;;10265778;28;20046;-76
2023/05/21 00:35:17;;;;;;;7.05;5.70;;;;;;;;;;10233386;28;20151;-76
2023/05/21 00:40:14;;;;;;;9.45;5.75;;;;;;;;;;10269883;28;20048;-77
2023/05/21 00:45:10;;;;;;;7.93;6.22;;;;;;;;;;10254521;28;20057;-76
2023/05/21 00:50:07;;;;;;;8.65;6.22;;;;;;;;;;10238949;28;20488;-76
2023/05/21 00:55:03;;;;;;;5.60;5.05;;;;;;;;;;10228281;28;20053;-75
2023/05/21 01:00:00;;;;;;;6.82;5.70;;;;;;;;;;10256726;28;20057;-76
2023/05/21 01:04:56;;;;;;;7.88;6.05;;;;;;;;;;10250470;28;20490;-76
2023/05/21 01:09:53;;;;;;;5.95;5.35;;;;;;;;;;10228381;28;20078;-77
2023/05/21 01:14:50;;;;;;;10.27;6.15;;;;;;;;;;10193788;28;20061;-77
2023/05/21 01:19:46;;;;;;;6.80;6.10;;;;;;;;;;10195755;28;20046;-77
2023/05/21 01:24:46;;;;;;;7.55;6.00;;;;;;;;;;10221751;28;20511;-77
2023/05/21 01:29:42;;;;;;;9.55;6.75;;;;;;;;;;10196168;28;20048;-76
2023/05/21 01:34:43;;;;;;;7.03;5.90;;;;;;;;;;10208063;28;20104;-76
2023/05/21 01:39:41;;;;;;;7.78;5.90;;;;;;;;;;10194839;28;20531;-76
2023/05/21 01:44:38;;;;;;;8.23;5.60;;;;;;;;;;10194760;28;20045;-76
2023/05/21 01:49:35;;;;;;;7.88;5.75;;;;;;;;;;10214303;28;20084;-76
2023/05/21 01:54:31;;;;;;;9.35;6.10;;;;;;;;;;10246221;28;20045;-76
2023/05/21 01:59:28;;;;;;;9.43;5.80;;;;;;;;;;10208657;28;20512;-76
2023/05/21 02:04:25;;;;;;;10.32;6.47;;;;;;;;;;10215651;28;20037;-76
2023/05/21 02:09:21;;;;;;;6.75;6.03;;;;;;;;;;10194708;28;20054;-76
2023/05/21 02:14:19;;;;;;;7.45;6.40;;;;;;;;;;10213381;28;20426;-76
2023/05/21 02:19:15;;;;;;;7.57;6.25;;;;;;;;;;10273774;28;20055;-76
2023/05/21 02:24:12;;;;;;;7.10;6.38;;;;;;;;;;10224359;28;20045;-77
2023/05/21 02:29:09;;;;;;;9.45;6.35;;;;;;;;;;10192700;28;20038;-77
2023/05/21 02:34:06;;;;;;;10.75;6.53;;;;;;;;;;10209717;28;20572;-76
2023/05/21 02:39:03;;;;;;;7.50;6.07;;;;;;;;;;10262135;28;20042;-77
2023/05/21 02:43:59;;;;;;;10.77;6.90;;;;;;;;;;10192908;28;20046;-76
2023/05/21 02:48:55;;;;;;;8.60;7.18;;;;;;;;;;10191082;28;20046;-76
2023/05/21 02:53:52;;;;;;;8.85;6.35;;;;;;;;;;10205590;28;20053;-77
2023/05/21 02:58:48;;;;;;;6.80;6.07;;;;;;;;;;10223105;28;20496;-77
2023/05/21 03:03:44;;;;;;;9.38;6.65;;;;;;;;;;10203501;28;20053;-77
2023/05/21 03:08:40;;;;;;;10.65;6.93;;;;;;;;;;10216739;28;20050;-77
2023/05/21 03:13:37;;;;;;;9.43;6.57;;;;;;;;;;10196080;28;20037;-76
2023/05/21 03:18:33;;;;;;;8.82;6.60;;;;;;;;;;10192140;28;20046;-76
2023/05/21 03:23:30;;;;;;;9.35;6.43;;;;;;;;;;10206723;28;20041;-76
2023/05/21 03:28:27;;;;;;;8.48;6.63;;;;;;;;;;10272267;28;20048;-77
2023/05/21 03:33:23;;;;;;;10.18;6.97;;;;;;;;;;10242121;28;20496;-77
2023/05/21 03:38:19;;;;;;;9.82;6.95;;;;;;;;;;10277361;28;20060;-77
2023/05/21 03:43:16;;;;;;;8.13;6.47;;;;;;;;;;10224110;28;20042;-76
2023/05/21 03:48:12;;;;;;;9.18;6.93;;;;;;;;;;10259317;28;20666;-76
2023/05/21 03:53:09;;;;;;;10.55;6.88;;;;;;;;;;10200630;28;20053;-77
2023/05/21 03:58:06;;;;;;;8.10;7.18;;;;;;;;;;10248432;28;20173;-76
2023/05/21 04:03:05;;;;;;;8.15;6.80;;;;;;;;;;10198218;28;20046;-76
2023/05/21 04:08:02;;;;;;;8.57;6.90;;;;;;;;;;10197895;28;20057;-78
2023/05/21 04:12:58;;;;;;;8.52;7.00;;;;;;;;;;10198462;28;20763;-77
2023/05/21 04:17:55;;;;;;;9.90;7.20;;;;;;;;;;10239398;28;20046;-77
2023/05/21 04:22:52;;;;;;;7.18;6.47;;;;;;;;;;10197877;28;20060;-76
2023/05/21 04:27:48;;;;;;;7.05;6.30;;;;;;;;;;10242313;28;20399;-77
2023/05/21 04:32:46;;;;;;;10.30;7.15;;;;;;;;;;10228237;28;20049;-77
2023/05/21 04:37:44;;;;;;;12.05;7.78;;;;;;;;;;10273352;28;20045;-77
2023/05/21 04:42:41;;;;;;;9.88;7.60;;;;;;;;;;10255010;28;20061;-76
2023/05/21 04:47:37;;;;;;;9.80;7.80;;;;;;;;;;10270799;28;20063;-76
2023/05/21 04:52:33;;;;;;;9.13;8.02;;;;;;;;;;10242246;28;20053;-77
2023/05/21 04:57:30;;;;;;;10.68;7.60;;;;;;;;;;10269745;28;20124;-76
2023/05/21 05:02:26;;;;;;;16.38;8.07;;;;;;;;;;10224056;28;20404;-76
2023/05/21 05:07:23;;;;;;;9.70;7.80;;;;;;;;;;10266263;28;20128;-76
2023/05/21 05:12:19;;;;;;;8.65;7.57;;;;;;;;;;10202881;28;20634;-77
2023/05/21 05:17:15;;;;;;;8.68;7.70;;;;;;;;;;10195853;28;20050;-77
2023/05/21 05:22:12;;;;;;;10.13;7.78;;;;;;;;;;10195112;28;20054;-77
2023/05/21 05:27:08;;;;;;;10.02;7.97;;;;;;;;;;10237543;28;20502;-76
2023/05/21 05:32:05;;;;;;;10.30;8.48;;;;;;;;;;10194825;28;20133;-77
2023/05/21 05:37:03;;;;;;;9.70;7.80;;;;;;;;;;10199098;28;20112;-76
2023/05/21 05:41:59;;;;;;;13.25;8.15;;;;;;;;;;10195035;28;20092;-76
2023/05/21 05:46:55;;;;;;;9.13;7.93;;;;;;;;;;10257604;28;20118;-77
2023/05/21 05:51:51;;;;;;;16.02;8.52;;;;;;;;;;10252008;28;20158;-76
2023/05/21 05:56:48;;;;;;;11.70;8.15;;;;;;;;;;10255286;28;20048;-76
2023/05/21 06:01:44;;;;;;;11.43;8.57;;;;;;;;;;10216510;28;20049;-76
2023/05/21 06:06:40;;;;;;;9.52;7.88;;;;;;;;;;10240129;28;20091;-76
2023/05/21 06:11:37;;;;;;;8.20;7.20;;;;;;;;;;10194237;28;20076;-76
2023/05/21 06:16:33;;;;;;;9.55;8.35;;;;;;;;;;10193960;28;20053;-77
2023/05/21 06:21:30;;;;;;;13.43;8.88;;;;;;;;;;10192593;28;20088;-76
2023/05/21 06:26:26;;;;;;;10.45;7.88;;;;;;;;;;10252579;28;20118;-77
2023/05/21 06:31:23;;;;;;;16.63;10.75;;;;;;;;;;10270704;28;20044;-76
2023/05/21 06:36:20;;;;;;;10.02;8.95;;;;;;;;;;10193210;28;20042;-77
2023/05/21 06:41:16;;;;;;;13.48;10.77;;;;;;;;;;10192767;28;20507;-77
2023/05/21 06:46:15;;;;;;;12.15;9.15;;;;;;;;;;10245082;28;20529;-77
2023/05/21 06:51:11;;;;;;;12.55;10.65;;;;;;;;;;10270924;28;20115;-76
2023/05/21 06:56:07;;;;;;;11.63;8.48;;;;;;;;;;10242587;28;20048;-77
2023/05/21 07:01:04;;;;;;;11.68;10.55;;;;;;;;;;10244272;28;20103;-77
2023/05/21 07:06:01;;;;;;;11.05;9.35;;;;;;;;;;10192338;28;20061;-76
2023/05/21 07:10:57;;;;;;;10.43;9.35;;;;;;;;;;10195328;28;20061;-76
2023/05/21 07:15:53;;;;;;;15.32;12.88;;;;;;;;;;10246409;28;20118;-77
2023/05/21 07:20:50;;;;;;;8.80;7.90;;;;;;;;;;10246624;28;20053;-77
2023/05/21 07:25:46;;;;;;;10.75;9.63;;;;;;;;;;10244233;28;20056;-76
2023/05/21 07:30:42;;;;;;;10.70;9.60;;;;;;;;;;10248964;28;20511;-77
2023/05/21 07:35:39;;;;;;;14.90;10.95;;;;;;;;;;10261325;28;20722;-77
2023/05/21 07:40:39;;;;;;;13.05;11.57;;;;;;;;;;10217235;28;20054;-77
2023/05/21 07:45:35;;;;;;;12.85;10.13;;;;;;;;;;10232394;28;20100;-77
2023/05/21 07:50:36;;;;;;;12.73;11.35;;;;;;;;;;10198992;28;20050;-77
2023/05/21 07:55:32;;;;;;;9.82;8.73;;;;;;;;;;10200373;28;20420;-77
2023/05/21 08:00:40;;;;;;;14.75;11.43;;;;;;;;;;10199265;28;20054;-77
2023/05/21 08:05:37;;;;;;;10.35;9.23;;;;;;;;;;10239825;28;20099;-77
2023/05/21 08:10:33;;;;;;;12.00;10.80;;;;;;;;;;10269713;28;20046;-76
2023/05/21 08:15:30;;;;;;;14.25;11.65;;;;;;;;;;10237757;28;20048;-77
2023/05/21 08:20:26;;;;;;;12.60;10.40;;;;;;;;;;10254917;28;20487;-76
2023/05/21 08:25:23;;;;;;;12.88;11.48;;;;;;;;;;10234586;28;20665;-76
2023/05/21 08:30:19;;;;;;;16.17;12.43;;;;;;;;;;10217102;28;20064;-77
2023/05/21 08:35:19;;;;;;;20.75;12.80;;;;;;;;;;10197886;28;20054;-76
2023/05/21 08:40:15;;;;;;;15.45;13.77;;;;;;;;;;10227561;28;20491;-79
2023/05/21 08:45:12;;;;;;;17.23;12.93;;;;;;;;;;10244184;28;20427;-78
2023/05/21 08:50:10;;;;;;;12.75;11.48;;;;;;;;;;10195694;28;20137;-78
2023/05/21 08:55:07;;;;;;;14.70;11.77;;;;;;;;;;10229454;28;20056;-78
2023/05/21 09:00:05;;;;;;;12.48;11.18;;;;;;;;;;10277368;28;20450;-72
2023/05/21 09:05:02;;;;;;;13.70;10.77;;;;;;;;;;10264202;28;20048;-74
2023/05/21 09:10:04;;;;;;;14.13;12.73;;;;;;;;;;10276713;28;20114;-79
2023/05/21 09:15:01;;;;;;;18.08;13.93;;;;;;;;;;10258530;28;20435;-77
2023/05/21 09:20:06;;;;;;;13.80;12.40;;;;;;;;;;10272014;28;20049;-77
2023/05/21 09:25:03;;;;;;;12.95;11.75;;;;;;;;;;10228822;28;20048;-78
2023/05/21 09:30:10;;;;;;;11.68;10.27;;;;;;;;;;10268297;28;20447;-78
2023/05/21 09:35:08;;;;;;;12.93;11.63;;;;;;;;;;10250341;28;20052;-78
2023/05/21 09:40:08;;;;;;;13.02;11.65;;;;;;;;;;10235174;28;20053;-77
2023/05/21 09:45:08;;;;;;;17.60;13.00;;;;;;;;;;10228703;28;20056;-77
2023/05/21 09:50:05;;;;;;;17.13;13.45;;;;;;;;;;10227789;28;20081;-77
2023/05/21 09:55:02;;;;;;;14.52;13.13;;;;;;;;;;10227401;28;20511;-77
2023/05/21 09:59:58;;;;;;;14.55;12.45;;;;;;;;;;10196314;28;20432;-78
2023/05/21 10:04:55;;;;;;;13.93;12.60;;;;;;;;;;10203114;28;20100;-78
2023/05/21 10:09:54;;;;;;;15.32;13.77;;;;;;;;;;10194456;28;20046;-78
2023/05/21 10:14:58;;;;;;;16.45;13.82;;;;;;;;;;10222575;28;20411;-78
2023/05/21 10:19:59;;;;;;;15.23;13.68;;;;;;;;;;10274691;28;20045;-78
2023/05/21 10:24:56;;;;;;;14.40;13.00;;;;;;;;;;10242437;28;20041;-78
2023/05/21 10:29:53;;;;;;;16.73;12.27;;;;;;;;;;10274553;28;20095;-79
2023/05/21 10:34:51;;;;;;;14.45;13.05;;;;;;;;;;10203847;28;20049;-78
2023/05/21 10:39:49;;;;;;;16.23;13.10;;;;;;;;;;10193552;28;20049;-79
2023/05/21 10:44:57;;;;;;;12.85;11.50;;;;;;;;;;10219658;28;20414;-78
2023/05/21 10:50:00;;;;;;;13.93;12.48;;;;;;;;;;10236777;28;20046;-78
2023/05/21 10:55:00;;;;;;;12.15;10.98;;;;;;;;;;10223452;28;20056;-78
2023/05/21 10:59:57;;;;;;;14.38;12.02;;;;;;;;;;10195915;28;20065;-78
2023/05/21 11:04:59;;;;;;;13.07;11.77;;;;;;;;;;10220629;28;20040;-78
2023/05/21 11:10:16;;;;;;;11.77;10.57;;;;;;;;;;10191186;28;20042;-78
2023/05/21 11:15:15;;;;;;;12.63;11.35;;;;;;;;;;10207100;28;20156;-78
2023/05/21 11:20:14;;;;;;;12.60;11.18;;;;;;;;;;10192907;28;20065;-78
2023/05/21 11:25:11;;;;;;;11.82;10.63;;;;;;;;;;10217005;28;20049;-78
2023/05/21 11:30:08;;;;;;;10.98;9.85;;;;;;;;;;10192907;28;20489;-78
2023/05/21 11:35:05;;;;;;;12.48;10.82;;;;;;;;;;10239928;28;20055;-77
2023/05/21 11:40:15;;;;;;;12.75;11.02;;;;;;;;;;10273444;28;20059;-74
2023/05/21 11:45:15;;;;;;;14.70;11.18;;;;;;;;;;10215656;28;21036;-72
2023/05/21 11:50:13;;;;;;;11.50;10.27;;;;;;;;;;10215330;28;20057;-74
2023/05/21 11:55:10;;;;;;;10.95;9.70;;;;;;;;;;10225486;28;20041;-73
2023/05/21 12:00:12;;;;;;;13.25;11.15;;;;;;;;;;10215712;28;20045;-74
2023/05/21 12:05:09;;;;;;;12.85;11.55;;;;;;;;;;10227266;28;20053;-74
2023/05/21 12:10:08;;;;;;;12.55;9.75;;;;;;;;;;10198205;28;20060;-73
2023/05/21 12:15:05;;;;;;;15.68;11.65;;;;;;;;;;10212117;28;20046;-73
2023/05/21 12:20:06;;;;;;;12.57;10.70;;;;;;;;;;10197196;28;20054;-75
2023/05/21 12:25:03;;;;;;;9.67;8.83;;;;;;;;;;10229403;28;20049;-73
2023/05/21 12:29:59;;;;;;;11.50;10.35;;;;;;;;;;10266951;28;20053;-74
2023/05/21 12:34:55;;;;;;;12.45;11.05;;;;;;;;;;10227421;28;20048;-74
2023/05/21 12:39:52;;;;;;;12.30;11.07;;;;;;;;;;10265938;28;20038;-74
2023/05/21 12:44:50;;;;;;;12.13;10.90;;;;;;;;;;10224918;28;20102;-72
2023/05/21 12:49:47;;;;;;;12.13;10.95;;;;;;;;;;10243157;28;20057;-72
2023/05/21 12:54:44;;;;;;;12.15;10.93;;;;;;;;;;10223060;28;20045;-72
2023/05/21 12:59:48;;;;;;;14.82;11.70;;;;;;;;;;10212048;28;20062;-72
2023/05/21 13:04:44;;;;;;;12.00;10.65;;;;;;;;;;10223243;28;20103;-72
2023/05/21 13:09:41;;;;;;;11.80;10.60;;;;;;;;;;10205760;28;20046;-72
2023/05/21 13:14:37;;;;;;;14.82;11.02;;;;;;;;;;10220652;28;20435;-72
2023/05/21 13:19:34;;;;;;;12.13;10.93;;;;;;;;;;10234211;28;20053;-72
2023/05/21 13:24:30;;;;;;;9.98;8.73;;;;;;;;;;10240130;28;20041;-72
2023/05/21 13:29:26;;;;;;;13.40;10.32;;;;;;;;;;10275885;28;20071;-72
2023/05/21 13:34:24;;;;;;;14.85;11.45;;;;;;;;;;10258682;28;20098;-72
2023/05/21 13:39:25;;;;;;;11.38;10.18;;;;;;;;;;10275030;28;20045;-72
2023/05/21 13:44:21;;;;;;;10.23;9.27;;;;;;;;;;10241894;28;20422;-72
2023/05/21 13:49:18;;;;;;;14.65;11.00;;;;;;;;;;10235255;28;20416;-72
2023/05/21 13:54:14;;;;;;;11.50;10.30;;;;;;;;;;10212509;28;20044;-72
2023/05/21 13:59:11;;;;;;;11.20;10.00;;;;;;;;;;10226838;28;20061;-72
2023/05/21 14:04:07;;;;;;;13.63;11.65;;;;;;;;;;10211235;28;20095;-73
2023/05/21 14:09:03;;;;;;;11.40;10.20;;;;;;;;;;10200605;28;20100;-72
2023/05/21 14:14:00;;;;;;;13.57;10.68;;;;;;;;;;10223926;28;20498;-72
2023/05/21 14:18:56;;;;;;;14.20;11.05;;;;;;;;;;10200337;28;20053;-72
2023/05/21 14:23:52;;;;;;;10.25;8.73;;;;;;;;;;10206303;28;20759;-72
2023/05/21 14:28:49;;;;;;;10.00;8.95;;;;;;;;;;10273499;28;20418;-72
2023/05/21 14:33:45;;;;;;;10.18;9.10;;;;;;;;;;10248758;28;20094;-72
2023/05/21 14:38:41;;;;;;;10.18;9.20;;;;;;;;;;10273310;28;20052;-72
2023/05/21 14:43:40;;;;;;;10.02;9.02;;;;;;;;;;10225061;28;20055;-72
2023/05/21 14:48:36;;;;;;;9.98;8.70;;;;;;;;;;10272681;28;20495;-72
2023/05/21 14:53:32;;;;;;;12.48;9.48;;;;;;;;;;10209502;28;20507;-72
2023/05/21 14:58:29;;;;;;;8.57;7.78;;;;;;;;;;10271494;28;20052;-72
2023/05/21 15:03:25;;;;;;;11.10;9.15;;;;;;;;;;10205732;28;20040;-72
2023/05/21 15:08:21;;;;;;;10.70;9.70;;;;;;;;;;10246024;28;20052;-72
2023/05/21 15:13:21;;;;;;;10.75;9.35;;;;;;;;;;10195909;28;20054;-73
2023/05/21 15:18:17;;;;;;;11.35;10.20;;;;;;;;;;10239080;28;20124;-73
2023/05/21 15:23:14;;;;;;;9.43;8.50;;;;;;;;;;10194694;28;20400;-74
2023/05/21 15:28:13;;;;;;;10.63;9.60;;;;;;;;;;10207079;28;20447;-73
2023/05/21 15:33:09;;;;;;;13.50;9.32;;;;;;;;;;10196568;28;20037;-74
2023/05/21 15:38:06;;;;;;;9.90;8.35;;;;;;;;;;10279721;28;20061;-73
2023/05/21 15:43:02;;;;;;;9.60;8.52;;;;;;;;;;10235343;28;20508;-73
2023/05/21 15:47:58;;;;;;;9.43;8.57;;;;;;;;;;10279348;28;20045;-73
2023/05/21 15:52:55;;;;;;;10.80;9.13;;;;;;;;;;10216705;28;20042;-73
2023/05/21 15:57:51;;;;;;;10.02;8.35;;;;;;;;;;10263287;28;20089;-73
2023/05/21 16:02:47;;;;;;;14.43;9.55;;;;;;;;;;10198679;28;20520;-74
2023/05/21 16:07:45;;;;;;;9.10;8.20;;;;;;;;;;10239807;28;20411;-73
2023/05/21 16:12:41;;;;;;;10.48;9.10;;;;;;;;;;10213142;28;20050;-74
2023/05/21 16:17:37;;;;;;;10.38;9.00;;;;;;;;;;10232382;28;20057;-74
2023/05/21 16:22:33;;;;;;;11.52;9.07;;;;;;;;;;10198110;28;20084;-73
2023/05/21 16:27:30;;;;;;;11.82;9.43;;;;;;;;;;10221369;28;20100;-74
2023/05/21 16:32:29;;;;;;;9.60;8.60;;;;;;;;;;10197510;28;20053;-74
2023/05/21 16:37:26;;;;;;;10.57;9.38;;;;;;;;;;10211773;28;20073;-73
2023/05/21 16:42:22;;;;;;;9.25;8.43;;;;;;;;;;10196631;28;20042;-73
2023/05/21 16:47:19;;;;;;;10.70;9.60;;;;;;;;;;10206264;28;20527;-74
2023/05/21 16:52:15;;;;;;;10.88;9.77;;;;;;;;;;10196595;28;20042;-73
2023/05/21 16:57:11;;;;;;;10.48;9.38;;;;;;;;;;10204538;28;20130;-74
2023/05/21 17:02:10;;;;;;;10.18;9.18;;;;;;;;;;10196209;28;20041;-74
2023/05/21 17:07:07;;;;;;;9.40;8.40;;;;;;;;;;10197207;28;20049;-73
2023/05/21 17:12:03;;;;;;;12.10;9.27;;;;;;;;;;10195646;28;20038;-73
2023/05/21 17:16:59;;;;;;;9.55;8.65;;;;;;;;;;10260064;28;20053;-73
2023/05/21 17:21:56;;;;;;;10.60;9.07;;;;;;;;;;10227937;28;20053;-73
2023/05/21 17:26:52;;;;;;;9.15;8.25;;;;;;;;;;10265318;28;20045;-73
2023/05/21 17:31:49;;;;;;;10.52;9.18;;;;;;;;;;10221493;28;20054;-73
2023/05/21 17:36:45;;;;;;;8.93;8.13;;;;;;;;;;10254433;28;20045;-73
2023/05/21 17:41:41;;;;;;;9.90;8.98;;;;;;;;;;10194945;28;20089;-73
2023/05/21 17:46:38;;;;;;;10.25;8.30;;;;;;;;;;10231520;28;20076;-73
2023/05/21 17:51:34;;;;;;;9.25;8.25;;;;;;;;;;10194670;28;20447;-74
2023/05/21 17:56:37;;;;;;;11.32;9.57;;;;;;;;;;10220583;28;20062;-73
2023/05/21 18:01:35;;;;;;;11.30;9.65;;;;;;;;;;10194252;28;20104;-73
2023/05/21 18:06:32;;;;;;;10.05;9.05;;;;;;;;;;10210371;28;20125;-73
2023/05/21 18:11:28;;;;;;;9.85;8.85;;;;;;;;;;10193938;28;20666;-74
2023/05/21 18:16:24;;;;;;;10.55;8.57;;;;;;;;;;10248444;28;20124;-74
2023/05/21 18:21:21;;;;;;;10.65;9.60;;;;;;;;;;10273891;28;20045;-73
2023/05/21 18:26:20;;;;;;;10.88;9.18;;;;;;;;;;10259862;28;20047;-73
2023/05/21 18:31:17;;;;;;;10.73;9.60;;;;;;;;;;10273769;28;20096;-73
2023/05/21 18:36:14;;;;;;;10.43;9.32;;;;;;;;;;10255953;28;20507;-73
2023/05/21 18:41:10;;;;;;;10.65;9.68;;;;;;;;;;10249353;28;20050;-73
2023/05/21 18:46:07;;;;;;;11.60;9.68;;;;;;;;;;10242924;28;20064;-73
2023/05/21 18:51:03;;;;;;;17.42;11.52;;;;;;;;;;10227513;28;20566;-73
2023/05/21 18:55:59;;;;;;;12.27;11.18;;;;;;;;;;10239997;28;20126;-73
2023/05/21 19:00:56;;;;;;;11.38;9.88;;;;;;;;;;10204351;28;20096;-73
2023/05/21 19:05:52;;;;;;;11.55;9.10;;;;;;;;;;10215589;28;20496;-73
2023/05/21 19:10:48;;;;;;;18.52;11.80;;;;;;;;;;10200656;28;20570;-73
2023/05/21 19:15:46;;;;;;;12.38;11.18;;;;;;;;;;10200308;28;20050;-73
2023/05/21 19:20:43;;;;;;;12.13;11.02;;;;;;;;;;10200436;28;20053;-73
2023/05/21 19:25:42;;;;;;;12.85;10.70;;;;;;;;;;10242258;28;20852;-73
2023/05/21 19:30:38;;;;;;;12.10;10.88;;;;;;;;;;10253238;28;20120;-73
2023/05/21 19:35:36;;;;;;;12.57;10.05;;;;;;;;;;10241625;28;20414;-73
2023/05/21 19:40:32;;;;;;;12.32;11.23;;;;;;;;;;10235501;28;20054;-73
2023/05/21 19:45:29;;;;;;;15.75;11.80;;;;;;;;;;10254386;28;20052;-73
2023/05/21 19:50:27;;;;;;;13.85;12.60;;;;;;;;;;10211041;28;20160;-73
2023/05/21 19:55:23;;;;;;;13.02;11.82;;;;;;;;;;10224251;28;20111;-73
2023/05/21 20:00:20;;;;;;;15.73;14.23;;;;;;;;;;10199079;28;20069;-73
2023/05/21 20:05:18;;;;;;;14.13;12.75;;;;;;;;;;10235002;28;20106;-72
2023/05/21 20:10:15;;;;;;;14.82;13.25;;;;;;;;;;10279547;28;20041;-73
2023/05/21 20:15:13;;;;;;;14.43;13.13;;;;;;;;;;10250944;28;20437;-72
2023/05/21 20:20:10;;;;;;;15.52;14.15;;;;;;;;;;10203233;28;20088;-73
2023/05/21 20:25:07;;;;;;;14.27;13.05;;;;;;;;;;10226863;28;20053;-73
2023/05/21 20:30:05;;;;;;;14.55;13.05;;;;;;;;;;10196968;28;20054;-73
2023/05/21 20:35:01;;;;;;;15.10;13.70;;;;;;;;;;10229757;28;20470;-73
2023/05/21 20:39:59;;;;;;;14.05;12.75;;;;;;;;;;10278461;28;20049;-72
2023/05/21 20:44:58;;;;;;;14.88;13.57;;;;;;;;;;10267054;28;20124;-73
2023/05/21 20:49:58;;;;;;;16.63;13.10;;;;;;;;;;10277535;28;20094;-73
2023/05/21 20:54:55;;;;;;;17.95;15.50;;;;;;;;;;10261776;28;20737;-73
2023/05/21 20:59:52;;;;;;;17.17;15.45;;;;;;;;;;10277229;28;20041;-73
2023/05/21 21:04:49;;;;;;;14.75;13.55;;;;;;;;;;10246625;28;20075;-72
2023/05/21 21:09:46;;;;;;;15.35;13.95;;;;;;;;;;10276840;28;20067;-72
2023/05/21 21:14:42;;;;;;;14.95;13.57;;;;;;;;;;10240286;28;20115;-73
2023/05/21 21:19:38;;;;;;;15.40;13.80;;;;;;;;;;10276628;28;20076;-72
2023/05/21 21:24:35;;;;;;;16.02;14.60;;;;;;;;;;10231346;28;20048;-73
2023/05/21 21:29:31;;;;;;;16.17;14.07;;;;;;;;;;10274886;28;20560;-73
2023/05/21 21:34:28;;;;;;;15.95;14.57;;;;;;;;;;10196916;28;20049;-74
2023/05/21 21:39:25;;;;;;;15.88;14.38;;;;;;;;;;10232748;28;20499;-72
2023/05/21 21:44:22;;;;;;;15.90;14.40;;;;;;;;;;10221757;28;20088;-74
2023/05/21 21:49:18;;;;;;;15.50;14.20;;;;;;;;;;10226318;28;20087;-69
2023/05/21 21:54:14;;;;;;;16.38;14.88;;;;;;;;;;10228565;28;20041;-72
2023/05/21 21:59:11;;;;;;;17.83;16.20;;;;;;;;;;10222902;28;20049;-70
2023/05/21 22:04:07;;;;;;;15.73;14.35;;;;;;;;;;10228014;28;20060;-70
2023/05/21 22:09:04;;;;;;;16.55;15.02;;;;;;;;;;10229980;28;20041;-68
2023/05/21 22:14:01;;;;;;;15.70;14.20;;;;;;;;;;10231399;28;20407;-69
2023/05/21 22:18:57;;;;;;;16.70;15.30;;;;;;;;;;10219989;28;20050;-70
2023/05/21 22:23:54;;;;;;;15.32;13.98;;;;;;;;;;10215812;28;20046;-69
2023/05/21 22:28:51;;;;;;;14.35;13.02;;;;;;;;;;10220214;28;20092;-69
2023/05/21 22:33:47;;;;;;;15.48;14.02;;;;;;;;;;10215590;28;20081;-70
2023/05/21 22:38:43;;;;;;;17.48;13.90;;;;;;;;;;10225519;28;20080;-70
2023/05/21 22:43:40;;;;;;;14.77;13.27;;;;;;;;;;10215417;28;20056;-70
2023/05/21 22:48:36;;;;;;;13.85;12.60;;;;;;;;;;10216133;28;20503;-70
2023/05/21 22:53:32;;;;;;;14.52;13.27;;;;;;;;;;10225740;28;20192;-69
2023/05/21 22:58:29;;;;;;;13.70;12.48;;;;;;;;;;10220343;28;20096;-69
2023/05/21 23:03:25;;;;;;;13.40;12.23;;;;;;;;;;10223989;28;20042;-71
2023/05/21 23:08:21;;;;;;;14.10;12.82;;;;;;;;;;10221893;28;20046;-72
2023/05/21 23:13:18;;;;;;;14.50;13.10;;;;;;;;;;10229629;28;20095;-69
2023/05/21 23:18:15;;;;;;;14.18;12.98;;;;;;;;;;10226533;28;20049;-69
2023/05/21 23:23:11;;;;;;;13.93;12.73;;;;;;;;;;10227626;28;21677;-70
2023/05/21 23:28:07;;;;;;;15.57;13.75;;;;;;;;;;10224584;28;20041;-70
2023/05/21 23:33:04;;;;;;;15.05;13.18;;;;;;;;;;10224561;28;20053;-69
2023/05/21 23:38:00;;;;;;;15.75;13.40;;;;;;;;;;10227489;28;20046;-68
2023/05/21 23:42:57;;;;;;;14.60;13.18;;;;;;;;;;10223846;28;20058;-69
2023/05/21 23:47:53;;;;;;;15.38;14.10;;;;;;;;;;10228032;28;20080;-69
2023/05/21 23:52:49;;;;;;;15.05;13.57;;;;;;;;;;10222924;28;20042;-69
2023/05/21 23:57:46;;;;;;;13.90;12.70;;;;;;;;;;10228536;28;20053;-69
